Terminal Aerodrome Forecast
Issued by NWS Twin Cities, MN

Home | Current Version | Previous Version | Graphics & Text | Print | Product List | Glossary On
Versions: 1 2 3 4 5 6 7 8 9 10 11 12 13 14 15 16 17 18 19 20 21 22 23 24 25 26 27
000
FTUS43 KMPX 251738
TAFMSP
TAF
KMSP 251738Z 2518/2624 15010G16KT P6SM BKN040 BKN250
     FM260000 14007KT P6SM SCT050 OVC090
     FM260600 14006KT P6SM SCT020 BKN050
     FM261400 15009KT P6SM VCSH SCT020 OVC050
     FM261800 18010KT P6SM SCT030 BKN050 PROB30 2618/2622 -TSRA
      BKN040CB
     FM262200 24010KT P6SM SCT050=

USA.gov is the U.S. government's official web portal to all federal, state and local government web resources and services.